MIA weather

Miami International Airport
Miami, Florida, United States

Public forecast

Using degrees Fahrenheit for public forecast. Weather courtesy of forecast.io.

Current aviation weather report (METAR) for Miami International Airport

Retrieved 2020/08/05 18:53 UTC (22 minutes ago):

KMIA 051853Z 15006KT 10SM SCT026 SCT055 SCT070 BKN250 30/24 A2999 RMK AO2 SLP156 CB DSNT NW T03000239

Aviation forecast (TAF) for Miami International Airport

Retrieved 2020/08/05 18:34 UTC (41 minutes ago):

TAF KMIA 051731Z 0518/0624 13008KT P6SM VCTS SCT025CB BKN045 TEMPO 0518/0521 VRB15G25KT 3SM TSRA BKN025CB FM060200 11005KT P6SM SCT024 SCT250 FM061400 13010KT P6SM VCSH SCT025 BKN045 PROB30 0618/0621 5SM TSRA BKN025CB